createdAt,value
2022-08-26T00:01:18.867Z,20.90
2022-08-26T00:04:16.261Z,20.90
2022-08-26T00:07:10.840Z,20.90
2022-08-26T00:10:04.832Z,20.90
2022-08-26T00:12:52.171Z,20.90
2022-08-26T00:15:46.835Z,20.90
2022-08-26T00:18:40.868Z,20.90
2022-08-26T00:21:34.888Z,20.90
2022-08-26T00:24:24.738Z,20.90
2022-08-26T00:27:18.881Z,20.90
2022-08-26T00:30:12.060Z,20.90
2022-08-26T00:33:06.004Z,20.80
2022-08-26T00:36:01.893Z,20.90
2022-08-26T00:38:56.869Z,20.90
2022-08-26T00:41:44.041Z,20.90
2022-08-26T00:44:37.928Z,20.90
2022-08-26T00:47:33.673Z,20.90
2022-08-26T00:50:33.902Z,20.90
2022-08-26T00:53:24.157Z,20.90
2022-08-26T00:56:35.965Z,20.90
2022-08-26T00:59:24.998Z,20.90
2022-08-26T01:02:21.509Z,20.90
2022-08-26T01:05:11.575Z,20.90
2022-08-26T01:08:04.974Z,20.90
2022-08-26T01:10:55.793Z,20.80
2022-08-26T01:13:49.909Z,20.80
2022-08-26T01:16:44.289Z,20.70
2022-08-26T01:19:46.906Z,20.70
2022-08-26T01:22:49.977Z,20.70
2022-08-26T01:25:52.967Z,20.70
2022-08-26T01:28:50.632Z,20.70
2022-08-26T01:31:46.430Z,20.70
2022-08-26T01:34:44.993Z,20.70
2022-08-26T01:37:43.959Z,20.70
2022-08-26T01:40:38.252Z,20.70
2022-08-26T01:43:35.985Z,20.70
2022-08-26T01:46:24.849Z,20.70
2022-08-26T01:49:21.003Z,20.70
2022-08-26T01:52:10.161Z,20.70
2022-08-26T01:55:06.010Z,20.60
2022-08-26T01:57:56.565Z,20.60
2022-08-26T02:00:51.092Z,20.60
2022-08-26T02:03:50.845Z,20.60
2022-08-26T02:06:46.052Z,20.60
2022-08-26T02:09:33.313Z,20.60
2022-08-26T02:12:35.056Z,20.60
2022-08-26T02:15:29.349Z,20.50
2022-08-26T02:18:17.216Z,20.40
2022-08-26T02:21:12.037Z,20.20
2022-08-26T02:24:12.273Z,20.10
2022-08-26T02:27:06.104Z,19.90
2022-08-26T02:30:00.278Z,19.80
2022-08-26T02:32:56.054Z,19.70
2022-08-26T02:35:43.567Z,19.70
2022-08-26T02:38:37.054Z,19.70
2022-08-26T02:41:24.290Z,19.70
2022-08-26T02:44:19.040Z,19.80
2022-08-26T02:47:08.110Z,19.80
2022-08-26T02:50:08.140Z,19.90
2022-08-26T02:53:05.133Z,19.90
2022-08-26T02:56:00.152Z,19.90
2022-08-26T02:58:54.457Z,19.90
2022-08-26T03:01:49.282Z,19.90
2022-08-26T03:04:38.091Z,19.90
2022-08-26T03:07:33.095Z,19.90
2022-08-26T03:10:22.053Z,19.90
2022-08-26T03:13:16.141Z,19.90
2022-08-26T03:16:03.872Z,19.90
2022-08-26T03:18:57.118Z,20.00
2022-08-26T03:21:47.445Z,20.00
2022-08-26T03:24:41.315Z,20.00
2022-08-26T03:27:40.196Z,20.00
2022-08-26T03:30:45.046Z,19.90
2022-08-26T03:33:40.145Z,19.90
2022-08-26T03:36:27.295Z,20.00
2022-08-26T03:39:21.171Z,20.00
2022-08-26T03:42:09.170Z,19.90
2022-08-26T03:45:04.161Z,20.00
2022-08-26T03:47:52.044Z,20.00
2022-08-26T03:50:47.209Z,20.00
2022-08-26T03:53:49.248Z,19.90
2022-08-26T03:56:36.827Z,20.00
2022-08-26T03:59:30.248Z,19.90
2022-08-26T04:02:17.599Z,19.90
2022-08-26T04:05:12.194Z,19.90
2022-08-26T04:08:06.193Z,19.90
2022-08-26T04:11:00.314Z,19.90
2022-08-26T04:13:48.603Z,19.90
2022-08-26T04:16:43.191Z,19.90
2022-08-26T04:19:31.292Z,19.80
2022-08-26T04:22:25.235Z,19.80
2022-08-26T04:25:12.967Z,19.80
2022-08-26T04:28:06.210Z,19.70
2022-08-26T04:30:53.502Z,19.80
2022-08-26T04:33:49.723Z,19.70
2022-08-26T04:36:44.249Z,19.70
2022-08-26T04:39:39.230Z,19.60
2022-08-26T04:42:26.449Z,19.60
2022-08-26T04:45:22.563Z,19.60
2022-08-26T04:48:11.160Z,19.60
2022-08-26T04:51:06.272Z,19.60
2022-08-26T04:53:57.631Z,19.50
2022-08-26T04:56:53.383Z,19.50
2022-08-26T04:59:47.256Z,19.50
2022-08-26T05:02:37.357Z,19.50
2022-08-26T05:05:31.319Z,19.50
2022-08-26T05:08:20.619Z,19.50
2022-08-26T05:11:15.299Z,19.50
2022-08-26T05:14:09.329Z,19.50
2022-08-26T05:17:09.297Z,19.50
2022-08-26T05:20:02.113Z,19.40
2022-08-26T05:22:56.486Z,19.40
2022-08-26T05:25:46.662Z,19.40
2022-08-26T05:28:40.334Z,19.40
2022-08-26T05:31:31.624Z,19.40
2022-08-26T05:34:30.191Z,19.40
2022-08-26T05:37:17.992Z,19.50
2022-08-26T05:40:12.478Z,19.60
2022-08-26T05:43:14.439Z,19.60
2022-08-26T05:46:15.485Z,19.70
2022-08-26T05:49:05.028Z,19.70
2022-08-26T05:51:59.337Z,19.70
2022-08-26T05:54:53.366Z,19.80
2022-08-26T05:57:42.216Z,19.90
2022-08-26T06:00:36.373Z,19.90
2022-08-26T06:03:23.479Z,19.90
2022-08-26T06:06:27.680Z,19.90
2022-08-26T06:09:17.550Z,20.00
2022-08-26T06:12:12.382Z,20.00
2022-08-26T06:15:02.302Z,20.10
2022-08-26T06:17:58.425Z,20.30
2022-08-26T06:20:57.229Z,20.30
2022-08-26T06:24:05.696Z,20.40
2022-08-26T06:27:02.504Z,20.50
2022-08-26T06:29:50.395Z,20.60
2022-08-26T06:32:44.418Z,20.70
2022-08-26T06:35:43.430Z,20.70
2022-08-26T06:38:37.419Z,20.70
2022-08-26T06:41:24.574Z,20.80
2022-08-26T06:44:20.933Z,20.80
2022-08-26T06:47:14.443Z,20.90
2022-08-26T06:50:08.685Z,20.90
2022-08-26T06:52:55.943Z,20.80
2022-08-26T06:55:52.502Z,20.80
2022-08-26T06:58:47.440Z,20.80
2022-08-26T07:01:45.545Z,20.80
2022-08-26T07:04:34.597Z,20.80
2022-08-26T07:07:29.488Z,20.70
2022-08-26T07:10:23.547Z,20.60
2022-08-26T07:13:17.552Z,20.70
2022-08-26T07:16:24.579Z,20.70
2022-08-26T07:19:11.781Z,20.70
2022-08-26T07:22:11.512Z,20.60
2022-08-26T07:25:05.505Z,20.60
2022-08-26T07:27:54.092Z,20.60
2022-08-26T07:30:48.594Z,20.60
2022-08-26T07:33:39.491Z,20.50
2022-08-26T07:36:37.541Z,20.50
2022-08-26T07:39:26.057Z,20.40
2022-08-26T07:42:22.577Z,20.40
2022-08-26T07:45:17.569Z,20.40
2022-08-26T07:48:05.268Z,20.40
2022-08-26T07:51:00.615Z,20.50
2022-08-26T07:53:52.721Z,20.60
2022-08-26T07:56:46.576Z,20.60
2022-08-26T07:59:42.847Z,20.60
2022-08-26T08:02:30.541Z,20.70
2022-08-26T08:05:33.521Z,20.70
2022-08-26T08:08:27.792Z,20.80
2022-08-26T08:11:26.207Z,20.80
2022-08-26T08:14:13.618Z,20.80
2022-08-26T08:17:07.937Z,20.80
2022-08-26T08:20:01.643Z,20.90
2022-08-26T08:22:50.087Z,21.00
2022-08-26T08:25:45.626Z,21.10
2022-08-26T08:28:39.615Z,21.20
2022-08-26T08:31:55.694Z,21.30
2022-08-26T08:34:46.678Z,21.30
2022-08-26T08:37:40.657Z,21.30
2022-08-26T08:40:34.693Z,21.30
2022-08-26T08:43:38.640Z,21.40
2022-08-26T08:46:32.754Z,21.50
2022-08-26T08:49:20.740Z,21.50
2022-08-26T08:52:43.657Z,21.60
2022-08-26T08:56:03.611Z,21.70
2022-08-26T08:59:03.591Z,21.80
2022-08-26T09:02:21.685Z,21.90
2022-08-26T09:05:30.757Z,22.00
2022-08-26T09:08:29.695Z,22.00
2022-08-26T09:11:18.685Z,22.00
2022-08-26T09:14:18.752Z,21.90
2022-08-26T09:17:19.753Z,21.80
2022-08-26T09:20:31.774Z,21.70
2022-08-26T09:23:19.529Z,21.60
2022-08-26T09:26:34.709Z,21.50
2022-08-26T09:29:33.738Z,21.40
2022-08-26T09:32:30.722Z,21.40
2022-08-26T09:35:34.749Z,21.40
2022-08-26T09:38:28.209Z,21.40
2022-08-26T09:41:39.739Z,21.40
2022-08-26T09:44:33.756Z,21.40
2022-08-26T09:47:29.786Z,21.40
2022-08-26T09:50:39.780Z,21.30
2022-08-26T09:53:43.815Z,21.30
2022-08-26T09:56:34.948Z,21.30
2022-08-26T09:59:36.755Z,21.30
2022-08-26T10:02:35.458Z,21.40
2022-08-26T10:05:43.822Z,21.40
2022-08-26T10:08:47.713Z,21.50
2022-08-26T10:11:43.098Z,21.50
2022-08-26T10:14:47.820Z,21.50
2022-08-26T10:18:01.883Z,21.60
2022-08-26T10:21:17.890Z,21.70
2022-08-26T10:24:07.377Z,21.60
2022-08-26T10:27:28.896Z,21.60
2022-08-26T10:30:22.847Z,21.70
2022-08-26T10:33:19.806Z,21.70
2022-08-26T10:36:39.328Z,21.70
2022-08-26T10:40:08.970Z,21.70
2022-08-26T10:43:10.435Z,21.90
2022-08-26T10:46:08.031Z,22.00
2022-08-26T10:49:12.847Z,22.10
2022-08-26T10:52:16.429Z,22.20
2022-08-26T10:55:37.366Z,22.30
2022-08-26T10:58:48.847Z,22.30
2022-08-26T11:01:43.179Z,22.40
2022-08-26T11:04:57.848Z,22.40
2022-08-26T11:08:02.899Z,22.30
2022-08-26T11:11:05.863Z,22.30
2022-08-26T11:14:02.898Z,22.30
2022-08-26T11:16:56.892Z,22.20
2022-08-26T11:20:01.942Z,22.20
2022-08-26T11:22:51.852Z,22.20
2022-08-26T11:26:30.045Z,22.20
2022-08-26T11:30:05.954Z,22.10
2022-08-26T11:32:58.740Z,22.10
2022-08-26T11:35:53.891Z,22.30
2022-08-26T11:38:42.446Z,22.40
2022-08-26T11:41:37.912Z,22.50
2022-08-26T11:44:49.124Z,22.70
2022-08-26T11:47:36.875Z,22.70
2022-08-26T11:50:34.962Z,22.60
2022-08-26T11:53:28.953Z,22.50
2022-08-26T11:56:32.405Z,22.40
2022-08-26T11:59:40.083Z,22.20
2022-08-26T12:02:34.939Z,22.10
2022-08-26T12:05:35.977Z,22.00
2022-08-26T12:08:34.939Z,21.90
2022-08-26T12:11:35.985Z,21.90
2022-08-26T12:14:26.031Z,21.90
2022-08-26T12:17:32.961Z,22.00
2022-08-26T12:20:31.576Z,22.00
2022-08-26T12:23:48.978Z,22.00
2022-08-26T12:26:44.005Z,22.20
2022-08-26T12:29:31.479Z,22.20
2022-08-26T12:32:25.994Z,22.30
2022-08-26T12:35:19.321Z,22.30
2022-08-26T12:38:15.018Z,22.30
2022-08-26T12:41:09.056Z,22.30
2022-08-26T12:44:03.052Z,22.20
2022-08-26T12:46:50.203Z,22.10
2022-08-26T12:49:46.031Z,22.10
2022-08-26T12:52:47.109Z,22.10
2022-08-26T12:55:47.655Z,22.10
2022-08-26T12:58:44.141Z,22.10
2022-08-26T13:01:45.178Z,22.10
2022-08-26T13:04:38.659Z,22.00
2022-08-26T13:07:33.040Z,22.00
2022-08-26T13:10:47.117Z,21.90
2022-08-26T13:13:41.052Z,21.80
2022-08-26T13:16:28.946Z,21.80
2022-08-26T13:19:29.091Z,21.70
2022-08-26T13:22:27.089Z,21.60
2022-08-26T13:25:21.111Z,21.60
2022-08-26T13:28:15.046Z,21.60
2022-08-26T13:31:09.199Z,21.60
2022-08-26T13:34:04.097Z,21.70
2022-08-26T13:36:54.197Z,21.70
2022-08-26T13:39:49.119Z,21.70
2022-08-26T13:42:36.401Z,21.70
2022-08-26T13:45:32.095Z,21.60
2022-08-26T13:48:22.889Z,21.40
2022-08-26T13:51:17.158Z,21.30
2022-08-26T13:54:12.105Z,21.10
2022-08-26T13:56:59.356Z,21.00
2022-08-26T13:59:53.133Z,21.10
2022-08-26T14:02:40.325Z,21.20
2022-08-26T14:05:35.126Z,21.10
2022-08-26T14:08:32.124Z,21.10
2022-08-26T14:11:21.475Z,21.10
2022-08-26T14:14:15.144Z,21.10
2022-08-26T14:17:02.671Z,21.10
2022-08-26T14:19:57.172Z,21.10
2022-08-26T14:23:12.665Z,21.20
2022-08-26T14:26:05.153Z,21.20
2022-08-26T14:28:59.230Z,21.30
2022-08-26T14:31:46.611Z,21.30
2022-08-26T14:34:40.201Z,21.40
2022-08-26T14:37:34.186Z,21.60
2022-08-26T14:40:22.571Z,21.80
2022-08-26T14:43:16.180Z,22.00
2022-08-26T14:46:10.260Z,22.20
2022-08-26T14:49:02.026Z,22.20
2022-08-26T14:51:57.222Z,22.20
2022-08-26T14:54:44.676Z,22.10
2022-08-26T14:57:38.213Z,22.10
2022-08-26T15:00:32.204Z,22.10
2022-08-26T15:06:19.222Z,22.10
2022-08-26T15:09:07.043Z,22.10
2022-08-26T15:12:01.208Z,22.00
2022-08-26T15:14:48.450Z,21.90
2022-08-26T15:17:42.225Z,21.80
2022-08-26T15:23:32.282Z,21.70
2022-08-26T15:26:27.287Z,21.60
2022-08-26T15:29:21.220Z,21.60
2022-08-26T15:32:21.248Z,21.60
2022-08-26T15:35:15.324Z,21.70
2022-08-26T15:38:03.004Z,21.80
2022-08-26T15:40:58.717Z,22.10
2022-08-26T15:43:48.144Z,22.30
2022-08-26T15:46:42.356Z,22.40
2022-08-26T15:49:29.519Z,22.30
2022-08-26T15:52:23.291Z,22.20
2022-08-26T15:55:17.324Z,22.30
2022-08-26T15:58:04.910Z,22.60
2022-08-26T16:00:59.345Z,23.10
2022-08-26T16:03:46.415Z,23.40
2022-08-26T16:06:44.333Z,23.50
2022-08-26T16:09:31.469Z,23.60
2022-08-26T16:12:25.363Z,23.60
2022-08-26T16:15:19.321Z,23.40
2022-08-26T16:18:14.360Z,23.10
2022-08-26T16:21:15.343Z,22.90
2022-08-26T16:24:03.321Z,22.60
2022-08-26T16:26:57.374Z,22.40
2022-08-26T16:29:44.499Z,22.10
2022-08-26T16:32:38.412Z,21.80
2022-08-26T16:35:28.015Z,21.70
2022-08-26T16:38:22.398Z,21.60
2022-08-26T16:41:10.436Z,21.70
2022-08-26T16:44:04.390Z,21.80
2022-08-26T16:46:52.933Z,21.70
2022-08-26T16:49:53.376Z,21.70
2022-08-26T16:52:41.390Z,21.70
2022-08-26T16:55:36.392Z,21.60
2022-08-26T16:58:23.556Z,21.60
2022-08-26T17:01:17.536Z,21.50
2022-08-26T17:04:04.864Z,21.50
2022-08-26T17:06:58.426Z,21.50
2022-08-26T17:09:52.423Z,21.50
2022-08-26T17:12:46.457Z,21.60
2022-08-26T17:15:33.594Z,21.60
2022-08-26T17:18:28.420Z,21.60
2022-08-26T17:21:15.529Z,21.60
2022-08-26T17:24:11.448Z,21.50
2022-08-26T17:27:05.435Z,21.40
2022-08-26T17:29:52.505Z,21.40
2022-08-26T17:32:47.450Z,21.30
2022-08-26T17:35:41.526Z,21.20
2022-08-26T17:38:29.269Z,21.10
2022-08-26T17:41:23.542Z,21.00
2022-08-26T17:44:10.663Z,21.00
2022-08-26T17:47:04.460Z,20.90
2022-08-26T17:49:51.734Z,20.90
2022-08-26T17:52:46.493Z,20.80
2022-08-26T17:55:34.062Z,20.70
2022-08-26T17:58:28.529Z,20.70
2022-08-26T18:01:18.197Z,20.60
2022-08-26T18:04:11.597Z,20.50
2022-08-26T18:07:07.728Z,20.40
2022-08-26T18:10:01.496Z,20.30
2022-08-26T18:12:48.985Z,20.30
2022-08-26T18:15:45.663Z,20.30
2022-08-26T18:18:34.273Z,20.20
2022-08-26T18:21:30.590Z,20.20
2022-08-26T18:24:18.069Z,20.20
2022-08-26T18:27:11.565Z,20.10
2022-08-26T18:29:59.035Z,20.10
2022-08-26T18:32:53.545Z,20.10
2022-08-26T18:35:45.072Z,20.00
2022-08-26T18:38:38.567Z,20.00
2022-08-26T18:41:32.044Z,19.90
2022-08-26T18:44:28.575Z,19.80
2022-08-26T18:47:22.547Z,19.70
2022-08-26T18:50:17.569Z,19.70
2022-08-26T18:53:11.630Z,19.70
2022-08-26T18:55:58.900Z,19.60
2022-08-26T18:58:52.645Z,19.60
2022-08-26T19:01:41.195Z,19.50
2022-08-26T19:04:34.594Z,19.50
2022-08-26T19:07:22.434Z,19.50
2022-08-26T19:10:16.613Z,19.50
2022-08-26T19:13:10.684Z,19.40
2022-08-26T19:15:58.047Z,19.30
2022-08-26T19:18:51.603Z,19.30
2022-08-26T19:21:46.779Z,19.20
2022-08-26T19:24:40.655Z,19.10
2022-08-26T19:27:34.630Z,19.10
2022-08-26T19:30:29.303Z,19.00
2022-08-26T19:33:18.842Z,19.00
2022-08-26T19:36:15.318Z,18.90
2022-08-26T19:39:11.707Z,18.90
2022-08-26T19:42:06.673Z,18.90
2022-08-26T19:45:24.924Z,18.90
2022-08-26T19:48:18.665Z,18.80
2022-08-26T19:51:06.045Z,18.70
2022-08-26T19:54:01.646Z,18.70
2022-08-26T19:56:55.671Z,18.70
2022-08-26T19:59:43.021Z,18.60
2022-08-26T20:02:36.740Z,18.50
2022-08-26T20:05:31.729Z,18.50
2022-08-26T20:08:25.690Z,18.40
2022-08-26T20:11:16.993Z,18.40
2022-08-26T20:14:10.689Z,18.40
2022-08-26T20:17:04.843Z,18.30
2022-08-26T20:20:14.707Z,18.30
2022-08-26T20:23:24.707Z,18.20
2022-08-26T20:26:18.755Z,18.20
2022-08-26T20:29:07.422Z,18.10
2022-08-26T20:32:00.761Z,18.10
2022-08-26T20:34:55.726Z,18.10
2022-08-26T20:37:44.210Z,18.00
2022-08-26T20:40:37.814Z,18.00
2022-08-26T20:43:25.115Z,18.00
2022-08-26T20:46:24.521Z,17.90
2022-08-26T20:49:13.231Z,17.90
2022-08-26T20:52:07.743Z,17.90
2022-08-26T20:54:54.950Z,17.80
2022-08-26T20:57:49.798Z,17.80
2022-08-26T21:00:38.135Z,17.80
2022-08-26T21:03:31.876Z,17.70
2022-08-26T21:06:19.715Z,17.70
2022-08-26T21:09:18.827Z,17.70
2022-08-26T21:12:05.991Z,17.70
2022-08-26T21:15:06.800Z,17.60
2022-08-26T21:17:54.009Z,17.60
2022-08-26T21:20:47.809Z,17.60
2022-08-26T21:23:54.794Z,17.50
2022-08-26T21:26:48.818Z,17.50
2022-08-26T21:29:36.782Z,17.50
2022-08-26T21:32:30.821Z,17.50
2022-08-26T21:35:24.848Z,17.40
2022-08-26T21:38:12.017Z,17.40
2022-08-26T21:41:18.829Z,17.40
2022-08-26T21:44:14.358Z,17.40
2022-08-26T21:47:07.927Z,17.40
2022-08-26T21:50:01.859Z,17.40
2022-08-26T21:52:55.856Z,17.40
2022-08-26T21:55:43.118Z,17.40
2022-08-26T21:58:36.878Z,17.30
2022-08-26T22:01:33.897Z,17.40
2022-08-26T22:04:21.464Z,17.40
2022-08-26T22:07:14.881Z,17.30
2022-08-26T22:10:02.204Z,17.30
2022-08-26T22:12:55.933Z,17.30
2022-08-26T22:15:51.882Z,17.30
2022-08-26T22:18:50.922Z,17.30
2022-08-26T22:21:44.909Z,17.40
2022-08-26T22:24:32.018Z,17.40
2022-08-26T22:27:25.928Z,17.40
2022-08-26T22:30:13.390Z,17.50
2022-08-26T22:33:06.974Z,17.50
2022-08-26T22:36:00.936Z,17.40
2022-08-26T22:38:48.521Z,17.50
2022-08-26T22:41:41.973Z,17.50
2022-08-26T22:44:35.968Z,17.50
2022-08-26T22:47:23.725Z,17.50
2022-08-26T22:50:17.007Z,17.40
2022-08-26T22:53:04.559Z,17.40
2022-08-26T22:55:59.199Z,17.40
2022-08-26T22:58:55.028Z,17.40
2022-08-26T23:01:51.046Z,17.40
2022-08-26T23:04:45.154Z,17.40
2022-08-26T23:07:38.982Z,17.50
2022-08-26T23:10:26.315Z,17.50
2022-08-26T23:13:21.321Z,17.50
2022-08-26T23:16:18.090Z,17.50
2022-08-26T23:19:12.105Z,17.60
2022-08-26T23:21:59.144Z,17.60
2022-08-26T23:24:53.016Z,17.70
2022-08-26T23:27:43.221Z,17.70
2022-08-26T23:30:40.096Z,17.70
2022-08-26T23:33:53.993Z,17.70
2022-08-26T23:36:43.444Z,17.80
2022-08-26T23:39:39.069Z,17.80
2022-08-26T23:42:26.178Z,17.80
2022-08-26T23:45:25.250Z,17.80
2022-08-26T23:48:19.463Z,17.80
2022-08-26T23:51:32.114Z,17.70
2022-08-26T23:54:26.291Z,17.70
2022-08-26T23:57:20.060Z,17.70
